TALR91 WPDL-WPMN
Flight info
| Callsign | TALR91 |
|---|---|
| Flight time | 0h 15m |
| Altitude | 6500 |
| Route | DCT |
| Aircraft | H60/M-SDFGRY/LB1 |
Departure
| Time | 2026-05-04 03:54 |
|---|---|
| Airport | Presidente Nicolau Lobato International Airport (WPDL) |
Arrival
| Time | 2026-05-04 04:10 |
|---|---|
| Airport | Maliana Airport (WPMN) |
| Time | Latitude | Longitude | Altitude | Speed | Heading |
|---|---|---|---|---|---|
| 2026-05-04 03:35 | -8.54912 | 125.51730 | 19 ft | 0 kts | 274° |
| 2026-05-04 03:51 | -8.54911 | 125.51730 | 19 ft | 0 kts | 273° |
| 2026-05-04 03:51 | -8.54928 | 125.51736 | 19 ft | 8 kts | 98° |
| 2026-05-04 03:52 | -8.54919 | 125.51800 | 20 ft | 10 kts | 80° |
| 2026-05-04 03:52 | -8.54889 | 125.51843 | 20 ft | 8 kts | 346° |
| 2026-05-04 03:52 | -8.54849 | 125.51833 | 19 ft | 2 kts | 347° |
| 2026-05-04 03:52 | -8.54836 | 125.51830 | 18 ft | 4 kts | 346° |
| 2026-05-04 03:53 | -8.54801 | 125.51823 | 17 ft | 4 kts | 18° |
| 2026-05-04 03:53 | -8.54788 | 125.51858 | 26 ft | 7 kts | 73° |
| 2026-05-04 03:53 | -8.54733 | 125.52098 | 54 ft | 73 kts | 76° |
| 2026-05-04 03:53 | -8.54588 | 125.52784 | 251 ft | 125 kts | 81° |
| 2026-05-04 03:54 | -8.54403 | 125.53733 | 459 ft | 145 kts | 81° |
| 2026-05-04 03:54 | -8.53912 | 125.54559 | 840 ft | 143 kts | 40° |
| 2026-05-04 03:54 | -8.52930 | 125.54650 | 1030 ft | 149 kts | 344° |
| 2026-05-04 03:54 | -8.52317 | 125.53904 | 1363 ft | 139 kts | 286° |
| 2026-05-04 03:55 | -8.52617 | 125.53064 | 1857 ft | 128 kts | 225° |
| 2026-05-04 03:55 | -8.53348 | 125.52527 | 2340 ft | 141 kts | 219° |
| 2026-05-04 03:55 | -8.54179 | 125.51883 | 2347 ft | 156 kts | 213° |
| 2026-05-04 03:55 | -8.55067 | 125.51310 | 2607 ft | 150 kts | 216° |
| 2026-05-04 03:56 | -8.55893 | 125.50669 | 2899 ft | 148 kts | 216° |
| 2026-05-04 03:56 | -8.56747 | 125.50074 | 3315 ft | 149 kts | 213° |
| 2026-05-04 03:56 | -8.57620 | 125.49495 | 3678 ft | 151 kts | 212° |
| 2026-05-04 03:56 | -8.58200 | 125.49105 | 3893 ft | 151 kts | 212° |
| 2026-05-04 03:57 | -8.59369 | 125.48316 | 4281 ft | 153 kts | 212° |
| 2026-05-04 03:57 | -8.60258 | 125.47716 | 4533 ft | 154 kts | 212° |
| 2026-05-04 03:57 | -8.61148 | 125.47109 | 4779 ft | 154 kts | 212° |
| 2026-05-04 03:57 | -8.62044 | 125.46499 | 5008 ft | 157 kts | 212° |
| 2026-05-04 03:58 | -8.63545 | 125.45476 | 5275 ft | 158 kts | 212° |
| 2026-05-04 03:58 | -8.64452 | 125.44860 | 5277 ft | 157 kts | 212° |
| 2026-05-04 03:58 | -8.65353 | 125.44244 | 5210 ft | 155 kts | 212° |
| 2026-05-04 03:59 | -8.66246 | 125.43637 | 5292 ft | 155 kts | 212° |
| 2026-05-04 03:59 | -8.67147 | 125.43023 | 5483 ft | 156 kts | 212° |
| 2026-05-04 03:59 | -8.68049 | 125.42403 | 5707 ft | 157 kts | 212° |
| 2026-05-04 03:59 | -8.68952 | 125.41778 | 5915 ft | 158 kts | 212° |
| 2026-05-04 04:00 | -8.69859 | 125.41148 | 6075 ft | 158 kts | 212° |
| 2026-05-04 04:00 | -8.70766 | 125.40519 | 6196 ft | 160 kts | 212° |
| 2026-05-04 04:00 | -8.71682 | 125.39884 | 6347 ft | 160 kts | 212° |
| 2026-05-04 04:00 | -8.72593 | 125.39252 | 6453 ft | 159 kts | 212° |
| 2026-05-04 04:01 | -8.73503 | 125.38621 | 6445 ft | 156 kts | 212° |
| 2026-05-04 04:01 | -8.74415 | 125.37990 | 6455 ft | 158 kts | 212° |
| 2026-05-04 04:01 | -8.75326 | 125.37361 | 6467 ft | 158 kts | 212° |
| 2026-05-04 04:01 | -8.76245 | 125.36732 | 6483 ft | 158 kts | 212° |
| 2026-05-04 04:02 | -8.77150 | 125.36100 | 6467 ft | 153 kts | 212° |
| 2026-05-04 04:02 | -8.78027 | 125.35449 | 6485 ft | 161 kts | 215° |
| 2026-05-04 04:02 | -8.78910 | 125.34748 | 6486 ft | 156 kts | 216° |
| 2026-05-04 04:02 | -8.79771 | 125.34055 | 6490 ft | 158 kts | 216° |
| 2026-05-04 04:03 | -8.80636 | 125.33361 | 6572 ft | 161 kts | 216° |
| 2026-05-04 04:03 | -8.81528 | 125.32658 | 6368 ft | 161 kts | 216° |
| 2026-05-04 04:03 | -8.82417 | 125.31962 | 6084 ft | 162 kts | 216° |
| 2026-05-04 04:03 | -8.83296 | 125.31266 | 5912 ft | 160 kts | 216° |
| 2026-05-04 04:04 | -8.84177 | 125.30570 | 5761 ft | 160 kts | 216° |
| 2026-05-04 04:04 | -8.85053 | 125.29878 | 5609 ft | 161 kts | 216° |
| 2026-05-04 04:04 | -8.85894 | 125.29098 | 5426 ft | 170 kts | 227° |
| 2026-05-04 04:04 | -8.86639 | 125.28175 | 5192 ft | 167 kts | 229° |
| 2026-05-04 04:05 | -8.87375 | 125.27265 | 4856 ft | 166 kts | 229° |
| 2026-05-04 04:05 | -8.88103 | 125.26370 | 4528 ft | 163 kts | 229° |
| 2026-05-04 04:05 | -8.88822 | 125.25492 | 4288 ft | 164 kts | 229° |
| 2026-05-04 04:05 | -8.89546 | 125.24610 | 4084 ft | 162 kts | 229° |
| 2026-05-04 04:06 | -8.90261 | 125.23741 | 3885 ft | 161 kts | 229° |
| 2026-05-04 04:06 | -8.90968 | 125.22882 | 3735 ft | 157 kts | 229° |
| 2026-05-04 04:06 | -8.91714 | 125.22097 | 3619 ft | 152 kts | 224° |
| 2026-05-04 04:06 | -8.92550 | 125.21467 | 3631 ft | 149 kts | 215° |
| 2026-05-04 04:07 | -8.93437 | 125.20895 | 3472 ft | 161 kts | 217° |
| 2026-05-04 04:07 | -8.94391 | 125.20219 | 2953 ft | 166 kts | 211° |
| 2026-05-04 04:07 | -8.95405 | 125.20030 | 2839 ft | 141 kts | 166° |
| 2026-05-04 04:07 | -8.96230 | 125.20437 | 3014 ft | 131 kts | 159° |
| 2026-05-04 04:08 | -8.97116 | 125.20785 | 2992 ft | 141 kts | 163° |
| 2026-05-04 04:08 | -8.98050 | 125.21050 | 2629 ft | 134 kts | 171° |
| 2026-05-04 04:08 | -8.98868 | 125.21321 | 2293 ft | 112 kts | 150° |
| 2026-05-04 04:08 | -8.99194 | 125.21892 | 2136 ft | 94 kts | 102° |
| 2026-05-04 04:09 | -8.98944 | 125.22533 | 1961 ft | 100 kts | 65° |
| 2026-05-04 04:09 | -8.98417 | 125.22938 | 1736 ft | 96 kts | 18° |
| 2026-05-04 04:09 | -8.97829 | 125.22838 | 1504 ft | 85 kts | 316° |
| 2026-05-04 04:09 | -8.97577 | 125.22354 | 1198 ft | 68 kts | 286° |
| 2026-05-04 04:10 | -8.97443 | 125.22005 | 916 ft | 37 kts | 284° |
| 2026-05-04 04:10 | -8.97344 | 125.21751 | 881 ft | 71 kts | 283° |
| 2026-05-04 04:10 | -8.97015 | 125.21119 | 979 ft | 118 kts | 296° |
| 2026-05-04 04:10 | -8.96277 | 125.20675 | 970 ft | 133 kts | 344° |
| 2026-05-04 04:11 | -8.95470 | 125.20255 | 939 ft | 131 kts | 307° |
| 2026-05-04 04:11 | -8.95716 | 125.19524 | 911 ft | 126 kts | 197° |
| 2026-05-04 04:11 | -8.96394 | 125.19932 | 953 ft | 113 kts | 128° |
| 2026-05-04 04:11 | -8.96768 | 125.20561 | 874 ft | 100 kts | 120° |
| 2026-05-04 04:12 | -8.97048 | 125.21130 | 757 ft | 77 kts | 115° |
| 2026-05-04 04:12 | -8.97230 | 125.21514 | 762 ft | 44 kts | 113° |
| 2026-05-04 04:12 | -8.97309 | 125.21684 | 755 ft | 13 kts | 111° |
| 2026-05-04 04:12 | -8.97342 | 125.21758 | 753 ft | 11 kts | 110° |
| 2026-05-04 04:13 | -8.97353 | 125.21830 | 753 ft | 7 kts | 108° |
| 2026-05-04 04:13 | -8.97356 | 125.21851 | 752 ft | 3 kts | 109° |
| 2026-05-04 04:13 | -8.97359 | 125.21866 | 734 ft | 1 kts | 111° |
| 2026-05-04 04:13 | -8.97363 | 125.21873 | 727 ft | 1 kts | 112° |